sensor_id;sensor_type;location;lat;lon;timestamp;P1;durP1;ratioP1;P2;durP2;ratioP2
17631;SDS011;8934;51.194;17.150;2022-11-06T08:02:00;37.83;;;24.13;;
17631;SDS011;8934;51.194;17.150;2022-11-06T08:04:49;35.33;;;24.17;;
17631;SDS011;8934;51.194;17.150;2022-11-06T08:07:38;33.93;;;23.50;;
17631;SDS011;8934;51.194;17.150;2022-11-06T08:10:26;38.50;;;23.63;;
17631;SDS011;8934;51.194;17.150;2022-11-06T08:13:14;33.73;;;22.50;;
17631;SDS011;8934;51.194;17.150;2022-11-06T08:16:03;34.97;;;23.60;;
17631;SDS011;8934;51.194;17.150;2022-11-06T08:18:51;38.20;;;24.87;;
17631;SDS011;8934;51.194;17.150;2022-11-06T08:21:39;42.97;;;25.23;;
17631;SDS011;8934;51.194;17.150;2022-11-06T08:24:28;33.80;;;23.63;;
17631;SDS011;8934;51.194;17.150;2022-11-06T08:27:16;44.87;;;28.43;;
17631;SDS011;8934;51.194;17.150;2022-11-06T08:30:04;40.77;;;27.87;;
17631;SDS011;8934;51.194;17.150;2022-11-06T08:32:53;39.33;;;27.47;;
17631;SDS011;8934;51.194;17.150;2022-11-06T08:35:41;38.67;;;27.57;;
17631;SDS011;8934;51.194;17.150;2022-11-06T08:38:29;46.40;;;28.83;;
17631;SDS011;8934;51.194;17.150;2022-11-06T08:41:18;38.00;;;27.50;;
17631;SDS011;8934;51.194;17.150;2022-11-06T08:44:06;39.60;;;25.40;;
17631;SDS011;8934;51.194;17.150;2022-11-06T08:46:54;34.07;;;23.90;;
17631;SDS011;8934;51.194;17.150;2022-11-06T08:49:42;42.17;;;26.00;;
17631;SDS011;8934;51.194;17.150;2022-11-06T08:52:30;35.53;;;25.30;;
17631;SDS011;8934;51.194;17.150;2022-11-06T08:55:19;36.33;;;26.63;;
17631;SDS011;8934;51.194;17.150;2022-11-06T08:58:07;38.43;;;29.37;;
17631;SDS011;8934;51.194;17.150;2022-11-06T09:00:55;36.83;;;27.63;;
17631;SDS011;8934;51.194;17.150;2022-11-06T09:03:43;39.87;;;28.63;;
17631;SDS011;8934;51.194;17.150;2022-11-06T09:06:30;34.93;;;27.00;;
17631;SDS011;8934;51.194;17.150;2022-11-06T09:09:18;42.20;;;28.33;;
17631;SDS011;8934;51.194;17.150;2022-11-06T09:12:07;33.87;;;25.50;;
17631;SDS011;8934;51.194;17.150;2022-11-06T09:14:56;40.23;;;28.07;;
17631;SDS011;8934;51.194;17.150;2022-11-06T09:17:43;33.40;;;26.27;;
17631;SDS011;8934;51.194;17.150;2022-11-06T09:20:32;37.90;;;25.87;;
17631;SDS011;8934;51.194;17.150;2022-11-06T09:23:20;36.23;;;26.07;;
17631;SDS011;8934;51.194;17.150;2022-11-06T09:26:08;33.97;;;24.17;;
17631;SDS011;8934;51.194;17.150;2022-11-06T09:28:56;30.13;;;23.90;;
17631;SDS011;8934;51.194;17.150;2022-11-06T09:31:45;26.17;;;18.42;;
17631;SDS011;8934;51.194;17.150;2022-11-06T09:34:33;22.27;;;17.20;;
17631;SDS011;8934;51.194;17.150;2022-11-06T09:37:20;24.87;;;16.90;;
17631;SDS011;8934;51.194;17.150;2022-11-06T09:40:11;22.88;;;16.67;;
17631;SDS011;8934;51.194;17.150;2022-11-06T09:43:12;20.52;;;14.80;;
17631;SDS011;8934;51.194;17.150;2022-11-06T09:46:30;15.70;;;13.77;;
17631;SDS011;8934;51.194;17.150;2022-11-06T09:49:21;19.38;;;13.80;;
17631;SDS011;8934;51.194;17.150;2022-11-06T09:52:12;15.30;;;13.27;;
17631;SDS011;8934;51.194;17.150;2022-11-06T09:55:09;17.17;;;14.40;;
17631;SDS011;8934;51.194;17.150;2022-11-06T09:58:03;21.25;;;13.13;;
17631;SDS011;8934;51.194;17.150;2022-11-06T10:00:56;20.13;;;13.82;;
17631;SDS011;8934;51.194;17.150;2022-11-06T10:03:49;17.90;;;14.60;;
17631;SDS011;8934;51.194;17.150;2022-11-06T10:06:42;14.43;;;12.93;;
17631;SDS011;8934;51.194;17.150;2022-11-06T10:09:29;16.92;;;14.05;;
17631;SDS011;8934;51.194;17.150;2022-11-06T10:12:18;17.33;;;13.40;;
17631;SDS011;8934;51.194;17.150;2022-11-06T10:15:16;19.05;;;13.02;;
17631;SDS011;8934;51.194;17.150;2022-11-06T10:18:10;14.50;;;12.80;;
17631;SDS011;8934;51.194;17.150;2022-11-06T10:21:08;17.15;;;12.93;;
17631;SDS011;8934;51.194;17.150;2022-11-06T10:23:59;14.32;;;12.73;;
17631;SDS011;8934;51.194;17.150;2022-11-06T10:26:57;18.52;;;12.40;;
17631;SDS011;8934;51.194;17.150;2022-11-06T10:29:49;13.75;;;12.25;;
17631;SDS011;8934;51.194;17.150;2022-11-06T10:33:00;15.88;;;11.20;;
17631;SDS011;8934;51.194;17.150;2022-11-06T10:36:02;14.85;;;11.05;;
17631;SDS011;8934;51.194;17.150;2022-11-06T10:38:56;14.60;;;10.65;;
17631;SDS011;8934;51.194;17.150;2022-11-06T10:41:50;11.65;;;8.32;;
17631;SDS011;8934;51.194;17.150;2022-11-06T10:44:44;10.35;;;8.27;;
17631;SDS011;8934;51.194;17.150;2022-11-06T10:47:36;9.90;;;7.20;;
17631;SDS011;8934;51.194;17.150;2022-11-06T10:50:27;10.13;;;7.35;;
17631;SDS011;8934;51.194;17.150;2022-11-06T10:53:23;10.60;;;7.32;;
17631;SDS011;8934;51.194;17.150;2022-11-06T10:56:22;8.98;;;5.93;;
17631;SDS011;8934;51.194;17.150;2022-11-06T10:59:24;11.00;;;6.15;;
17631;SDS011;8934;51.194;17.150;2022-11-06T11:02:18;9.77;;;6.97;;
17631;SDS011;8934;51.194;17.150;2022-11-06T11:05:11;8.18;;;6.53;;
17631;SDS011;8934;51.194;17.150;2022-11-06T11:08:00;7.20;;;5.10;;
17631;SDS011;8934;51.194;17.150;2022-11-06T11:10:48;5.63;;;4.38;;
17631;SDS011;8934;51.194;17.150;2022-11-06T11:17:00;6.57;;;3.92;;
17631;SDS011;8934;51.194;17.150;2022-11-06T11:19:53;7.20;;;2.88;;
17631;SDS011;8934;51.194;17.150;2022-11-06T11:22:41;4.05;;;2.65;;
17631;SDS011;8934;51.194;17.150;2022-11-06T11:25:29;4.70;;;3.38;;
17631;SDS011;8934;51.194;17.150;2022-11-06T11:28:27;5.15;;;3.03;;
17631;SDS011;8934;51.194;17.150;2022-11-06T11:31:18;3.70;;;3.00;;
17631;SDS011;8934;51.194;17.150;2022-11-06T11:34:13;6.15;;;3.28;;
17631;SDS011;8934;51.194;17.150;2022-11-06T11:37:03;4.88;;;3.10;;
17631;SDS011;8934;51.194;17.150;2022-11-06T11:39:53;5.68;;;2.95;;
17631;SDS011;8934;51.194;17.150;2022-11-06T11:42:42;6.00;;;3.33;;
17631;SDS011;8934;51.194;17.150;2022-11-06T11:45:29;5.25;;;3.30;;
17631;SDS011;8934;51.194;17.150;2022-11-06T11:48:18;6.70;;;3.40;;
17631;SDS011;8934;51.194;17.150;2022-11-06T11:51:10;5.07;;;3.20;;
17631;SDS011;8934;51.194;17.150;2022-11-06T11:54:06;7.43;;;3.42;;
17631;SDS011;8934;51.194;17.150;2022-11-06T11:57:05;6.55;;;3.65;;
17631;SDS011;8934;51.194;17.150;2022-11-06T11:59:55;7.00;;;3.53;;
17631;SDS011;8934;51.194;17.150;2022-11-06T12:02:49;6.32;;;3.63;;
17631;SDS011;8934;51.194;17.150;2022-11-06T12:05:40;4.75;;;3.38;;
17631;SDS011;8934;51.194;17.150;2022-11-06T12:08:28;5.85;;;3.05;;
17631;SDS011;8934;51.194;17.150;2022-11-06T12:11:18;5.45;;;3.13;;
17631;SDS011;8934;51.194;17.150;2022-11-06T12:14:15;3.70;;;2.83;;
17631;SDS011;8934;51.194;17.150;2022-11-06T12:17:18;3.05;;;2.75;;
17631;SDS011;8934;51.194;17.150;2022-11-06T12:20:09;4.40;;;3.03;;
17631;SDS011;8934;51.194;17.150;2022-11-06T12:23:01;4.32;;;2.75;;
17631;SDS011;8934;51.194;17.150;2022-11-06T12:25:55;6.20;;;3.20;;
17631;SDS011;8934;51.194;17.150;2022-11-06T12:28:47;5.32;;;3.08;;
17631;SDS011;8934;51.194;17.150;2022-11-06T12:31:39;5.65;;;3.30;;
17631;SDS011;8934;51.194;17.150;2022-11-06T12:34:31;4.80;;;3.08;;
17631;SDS011;8934;51.194;17.150;2022-11-06T12:37:22;8.95;;;3.60;;
17631;SDS011;8934;51.194;17.150;2022-11-06T12:40:24;3.60;;;3.20;;
17631;SDS011;8934;51.194;17.150;2022-11-06T12:43:16;4.75;;;2.95;;
17631;SDS011;8934;51.194;17.150;2022-11-06T12:46:13;6.47;;;3.05;;
17631;SDS011;8934;51.194;17.150;2022-11-06T12:49:10;5.68;;;2.75;;
17631;SDS011;8934;51.194;17.150;2022-11-06T12:52:20;4.55;;;3.00;;
17631;SDS011;8934;51.194;17.150;2022-11-06T12:55:19;4.63;;;2.58;;
17631;SDS011;8934;51.194;17.150;2022-11-06T12:58:16;6.47;;;2.85;;
17631;SDS011;8934;51.194;17.150;2022-11-06T13:01:27;6.28;;;3.35;;
17631;SDS011;8934;51.194;17.150;2022-11-06T13:04:32;5.60;;;3.03;;
17631;SDS011;8934;51.194;17.150;2022-11-06T13:07:29;3.65;;;3.25;;
17631;SDS011;8934;51.194;17.150;2022-11-06T13:10:38;5.07;;;2.72;;
17631;SDS011;8934;51.194;17.150;2022-11-06T13:13:41;6.93;;;3.10;;
17631;SDS011;8934;51.194;17.150;2022-11-06T13:16:37;4.00;;;2.90;;
17631;SDS011;8934;51.194;17.150;2022-11-06T13:19:31;4.25;;;2.60;;
17631;SDS011;8934;51.194;17.150;2022-11-06T13:22:25;6.28;;;3.30;;
17631;SDS011;8934;51.194;17.150;2022-11-06T13:25:18;3.55;;;2.60;;
17631;SDS011;8934;51.194;17.150;2022-11-06T13:28:19;7.50;;;3.42;;
17631;SDS011;8934;51.194;17.150;2022-11-06T13:31:12;6.22;;;3.13;;
17631;SDS011;8934;51.194;17.150;2022-11-06T13:34:03;5.07;;;2.85;;
17631;SDS011;8934;51.194;17.150;2022-11-06T13:36:52;5.18;;;3.15;;
17631;SDS011;8934;51.194;17.150;2022-11-06T13:39:42;8.25;;;3.00;;
17631;SDS011;8934;51.194;17.150;2022-11-06T13:42:35;7.13;;;2.83;;
17631;SDS011;8934;51.194;17.150;2022-11-06T13:45:30;6.80;;;2.92;;
17631;SDS011;8934;51.194;17.150;2022-11-06T13:48:30;6.05;;;2.97;;
17631;SDS011;8934;51.194;17.150;2022-11-06T13:51:24;3.80;;;2.65;;
17631;SDS011;8934;51.194;17.150;2022-11-06T13:54:29;7.80;;;2.90;;
17631;SDS011;8934;51.194;17.150;2022-11-06T13:57:32;6.72;;;2.78;;
17631;SDS011;8934;51.194;17.150;2022-11-06T14:00:38;5.45;;;2.90;;
17631;SDS011;8934;51.194;17.150;2022-11-06T14:03:40;6.03;;;2.97;;
17631;SDS011;8934;51.194;17.150;2022-11-06T14:06:45;5.47;;;2.28;;
17631;SDS011;8934;51.194;17.150;2022-11-06T14:09:39;3.22;;;2.33;;
17631;SDS011;8934;51.194;17.150;2022-11-06T14:12:29;5.70;;;2.92;;
17631;SDS011;8934;51.194;17.150;2022-11-06T14:15:22;4.35;;;2.10;;
17631;SDS011;8934;51.194;17.150;2022-11-06T14:18:20;3.10;;;2.20;;
17631;SDS011;8934;51.194;17.150;2022-11-06T14:21:41;3.45;;;2.40;;
17631;SDS011;8934;51.194;17.150;2022-11-06T14:24:32;7.43;;;2.70;;
17631;SDS011;8934;51.194;17.150;2022-11-06T14:30:50;5.35;;;2.70;;
17631;SDS011;8934;51.194;17.150;2022-11-06T14:34:02;4.50;;;2.42;;
17631;SDS011;8934;51.194;17.150;2022-11-06T14:36:50;4.88;;;2.47;;
17631;SDS011;8934;51.194;17.150;2022-11-06T14:42:51;4.70;;;2.47;;
17631;SDS011;8934;51.194;17.150;2022-11-06T14:45:39;3.00;;;2.30;;
17631;SDS011;8934;51.194;17.150;2022-11-06T14:48:37;5.88;;;2.70;;
17631;SDS011;8934;51.194;17.150;2022-11-06T14:51:30;5.80;;;2.88;;
17631;SDS011;8934;51.194;17.150;2022-11-06T14:54:19;7.18;;;2.70;;
17631;SDS011;8934;51.194;17.150;2022-11-06T14:57:12;5.10;;;3.08;;
17631;SDS011;8934;51.194;17.150;2022-11-06T15:00:03;7.00;;;2.97;;
17631;SDS011;8934;51.194;17.150;2022-11-06T15:02:51;5.20;;;3.10;;
17631;SDS011;8934;51.194;17.150;2022-11-06T15:05:41;4.13;;;3.38;;
17631;SDS011;8934;51.194;17.150;2022-11-06T15:08:56;6.38;;;3.10;;
17631;SDS011;8934;51.194;17.150;2022-11-06T15:11:49;4.50;;;3.10;;
17631;SDS011;8934;51.194;17.150;2022-11-06T15:14:58;6.28;;;3.70;;
17631;SDS011;8934;51.194;17.150;2022-11-06T15:17:52;4.10;;;3.58;;
17631;SDS011;8934;51.194;17.150;2022-11-06T15:20:40;5.18;;;3.60;;
17631;SDS011;8934;51.194;17.150;2022-11-06T15:23:38;7.28;;;3.90;;
17631;SDS011;8934;51.194;17.150;2022-11-06T15:26:32;8.88;;;5.18;;
17631;SDS011;8934;51.194;17.150;2022-11-06T15:29:27;10.43;;;7.28;;
17631;SDS011;8934;51.194;17.150;2022-11-06T15:32:18;13.43;;;10.23;;
17631;SDS011;8934;51.194;17.150;2022-11-06T15:35:10;17.63;;;12.45;;
17631;SDS011;8934;51.194;17.150;2022-11-06T15:38:03;21.53;;;12.90;;
17631;SDS011;8934;51.194;17.150;2022-11-06T15:40:56;18.17;;;11.95;;
17631;SDS011;8934;51.194;17.150;2022-11-06T15:43:46;22.90;;;12.00;;
17631;SDS011;8934;51.194;17.150;2022-11-06T15:46:35;19.45;;;11.35;;
17631;SDS011;8934;51.194;17.150;2022-11-06T15:49:23;17.77;;;12.07;;
17631;SDS011;8934;51.194;17.150;2022-11-06T15:52:14;18.10;;;12.20;;
17631;SDS011;8934;51.194;17.150;2022-11-06T15:55:04;20.48;;;12.48;;
17631;SDS011;8934;51.194;17.150;2022-11-06T15:57:52;23.83;;;12.17;;
17631;SDS011;8934;51.194;17.150;2022-11-06T16:00:42;21.10;;;14.20;;
17631;SDS011;8934;51.194;17.150;2022-11-06T16:06:19;21.70;;;13.83;;
17631;SDS011;8934;51.194;17.150;2022-11-06T16:09:09;20.73;;;14.23;;
17631;SDS011;8934;51.194;17.150;2022-11-06T16:12:02;25.33;;;14.07;;
17631;SDS011;8934;51.194;17.150;2022-11-06T16:14:50;19.00;;;13.63;;
17631;SDS011;8934;51.194;17.150;2022-11-06T16:17:39;19.43;;;14.60;;
